createdAt,value
2022-10-22T15:31:06.879Z,17.46
2022-10-22T15:33:33.227Z,17.43
2022-10-22T15:36:15.910Z,17.19
2022-10-22T15:38:42.330Z,17.11
2022-10-22T15:41:12.221Z,17.14
2022-10-22T15:43:38.581Z,16.96
2022-10-22T15:46:12.496Z,16.96
2022-10-22T15:48:39.684Z,16.92
2022-10-22T15:51:13.770Z,16.83
2022-10-22T15:53:40.904Z,16.75
2022-10-22T15:56:07.597Z,16.65
2022-10-22T15:58:34.159Z,16.54
2022-10-22T16:01:05.514Z,16.43
2022-10-22T16:06:04.113Z,16.20
2022-10-22T16:08:31.706Z,16.14
2022-10-22T16:10:58.548Z,16.01
2022-10-22T16:13:26.101Z,15.90
2022-10-22T16:15:53.422Z,15.79
2022-10-22T16:18:21.322Z,15.63
2022-10-22T16:20:47.667Z,15.52
2022-10-22T16:23:15.472Z,15.48
2022-10-22T16:25:42.255Z,15.36
2022-10-22T16:28:10.793Z,15.25
2022-10-22T16:30:38.146Z,15.12
2022-10-22T16:33:06.266Z,15.07
2022-10-22T16:35:32.886Z,14.96
2022-10-22T16:37:59.551Z,14.84
2022-10-22T16:40:25.853Z,14.70
2022-10-22T16:42:52.418Z,14.62
2022-10-22T16:45:18.722Z,14.61
2022-10-22T16:47:46.847Z,14.49
2022-10-22T16:50:13.294Z,14.44
2022-10-22T16:52:39.763Z,14.36
2022-10-22T16:55:06.263Z,14.25
2022-10-22T16:57:33.802Z,14.21
2022-10-22T17:00:00.137Z,14.14
2022-10-22T17:02:26.445Z,14.09
2022-10-22T17:04:52.763Z,14.06
2022-10-22T17:07:19.115Z,13.99
2022-10-22T17:09:45.496Z,14.03
2022-10-22T17:12:11.848Z,14.03
2022-10-22T17:14:38.136Z,13.97
2022-10-22T17:17:04.514Z,13.91
2022-10-22T17:19:30.846Z,13.93
2022-10-22T17:21:57.127Z,13.85
2022-10-22T17:24:23.430Z,13.84
2022-10-22T17:26:49.714Z,13.80
2022-10-22T17:29:16.666Z,13.67
2022-10-22T17:31:42.998Z,13.58
2022-10-22T17:34:15.495Z,13.48
2022-10-22T17:36:42.809Z,13.40
2022-10-22T17:39:13.523Z,13.27
2022-10-22T17:41:39.845Z,13.27
2022-10-22T17:44:09.139Z,13.23
2022-10-22T17:46:35.763Z,13.31
2022-10-22T17:49:04.673Z,13.17
2022-10-22T17:51:31.726Z,13.11
2022-10-22T17:53:58.906Z,13.14
2022-10-22T17:56:28.783Z,13.14
2022-10-22T17:58:55.579Z,13.06
2022-10-22T18:01:25.502Z,13.00
2022-10-22T18:03:53.399Z,12.99
2022-10-22T18:06:20.529Z,12.93
2022-10-22T18:08:47.087Z,12.91
2022-10-22T18:11:18.697Z,12.83
2022-10-22T18:13:49.040Z,12.84
2022-10-22T18:16:15.436Z,12.82
2022-10-22T18:18:47.004Z,12.80
2022-10-22T18:21:14.512Z,12.73
2022-10-22T18:23:41.067Z,12.74
2022-10-22T18:26:07.383Z,12.64
2022-10-22T18:28:33.870Z,12.54
2022-10-22T18:31:00.198Z,12.56
2022-10-22T18:33:26.579Z,12.51
2022-10-22T18:35:52.889Z,12.42
2022-10-22T18:38:21.745Z,12.37
2022-10-22T18:40:49.196Z,12.32
2022-10-22T18:43:17.066Z,12.33
2022-10-22T18:45:48.283Z,12.30
2022-10-22T18:48:17.594Z,12.22
2022-10-22T18:50:44.657Z,12.28
2022-10-22T18:53:13.536Z,12.16
2022-10-22T18:55:40.154Z,12.14
2022-10-22T18:58:07.279Z,12.16
2022-10-22T19:00:36.710Z,12.07
2022-10-22T19:03:03.243Z,12.01
2022-10-22T19:05:29.597Z,11.96
2022-10-22T19:07:55.933Z,11.92
2022-10-22T19:10:22.286Z,11.90
2022-10-22T19:12:48.587Z,11.88
2022-10-22T19:15:14.923Z,11.85
2022-10-22T19:17:41.570Z,11.81
2022-10-22T19:20:08.730Z,11.70
2022-10-22T19:22:35.118Z,11.69
2022-10-22T19:25:01.461Z,11.60
2022-10-22T19:27:27.742Z,11.54
2022-10-22T19:29:54.027Z,11.59
2022-10-22T19:32:20.937Z,11.53
2022-10-22T19:34:47.250Z,11.48
2022-10-22T19:37:13.850Z,11.42
2022-10-22T19:39:40.130Z,11.50
2022-10-22T19:42:06.486Z,11.54
2022-10-22T19:44:32.855Z,11.52
2022-10-22T19:46:59.153Z,11.52
2022-10-22T19:49:25.464Z,11.44
2022-10-22T19:51:51.803Z,11.39
2022-10-22T19:54:21.182Z,11.39
2022-10-22T19:56:48.871Z,11.30
2022-10-22T19:59:16.305Z,11.33
2022-10-22T20:01:43.006Z,11.25
2022-10-22T20:04:15.086Z,11.30
2022-10-22T20:06:41.480Z,11.16
2022-10-22T20:09:07.820Z,11.21
2022-10-22T20:11:34.120Z,11.16
2022-10-22T20:14:00.460Z,11.14
2022-10-22T20:16:29.508Z,11.21
2022-10-22T20:19:01.019Z,11.21
2022-10-22T20:21:27.531Z,11.14
2022-10-22T20:23:56.468Z,11.06
2022-10-22T20:26:24.323Z,11.12
2022-10-22T20:28:52.043Z,11.03
2022-10-22T20:31:20.071Z,10.97
2022-10-22T20:33:47.611Z,10.98
2022-10-22T20:36:18.313Z,11.02
2022-10-22T20:38:47.767Z,10.89
2022-10-22T20:41:17.485Z,10.87
2022-10-22T20:43:45.527Z,10.97
2022-10-22T20:46:22.881Z,10.85
2022-10-22T20:48:55.215Z,10.88
2022-10-22T20:51:21.578Z,10.91
2022-10-22T20:53:48.020Z,10.89
2022-10-22T20:56:14.928Z,10.84
2022-10-22T20:58:47.594Z,10.84
2022-10-22T21:01:21.335Z,10.85
2022-10-22T21:03:52.509Z,10.70
2022-10-22T21:06:23.743Z,10.53
2022-10-22T21:08:50.883Z,10.63
2022-10-22T21:11:17.735Z,10.66
2022-10-22T21:13:44.090Z,10.65
2022-10-22T21:16:13.301Z,10.68
2022-10-22T21:18:39.776Z,10.73
2022-10-22T21:21:07.595Z,10.67
2022-10-22T21:23:36.241Z,10.65
2022-10-22T21:26:03.555Z,10.62
2022-10-22T21:31:03.225Z,10.54
2022-10-22T21:33:29.678Z,10.61
2022-10-22T21:35:57.215Z,10.58
2022-10-22T21:38:24.613Z,10.50
2022-10-22T21:40:50.946Z,10.50
2022-10-22T21:43:17.941Z,10.49
2022-10-22T21:45:44.675Z,10.50
2022-10-22T21:48:14.623Z,10.43
2022-10-22T21:50:42.850Z,10.47
2022-10-22T21:53:10.390Z,10.41
2022-10-22T21:55:38.371Z,10.49
2022-10-22T21:58:04.732Z,10.41
2022-10-22T22:00:31.038Z,10.38
2022-10-22T22:02:57.335Z,10.35
2022-10-22T22:05:23.623Z,10.43
2022-10-22T22:07:49.949Z,10.36
2022-10-22T22:10:16.310Z,10.38
2022-10-22T22:12:42.869Z,10.32
2022-10-22T22:15:09.875Z,10.34
2022-10-22T22:17:36.389Z,10.39
2022-10-22T22:20:03.459Z,10.41
2022-10-22T22:22:29.957Z,10.34
2022-10-22T22:24:56.232Z,10.36
2022-10-22T22:27:22.592Z,10.35
2022-10-22T22:29:48.865Z,10.34
2022-10-22T22:32:15.802Z,10.32
2022-10-22T22:34:42.106Z,10.30
2022-10-22T22:37:08.399Z,10.31
2022-10-22T22:39:34.696Z,10.33
2022-10-22T22:42:01.307Z,10.35
2022-10-22T22:44:27.627Z,10.34
2022-10-22T22:46:53.901Z,10.31
2022-10-22T22:49:20.399Z,10.30
2022-10-22T22:51:46.806Z,10.30
2022-10-22T22:54:13.134Z,10.28
2022-10-22T22:56:39.491Z,10.23
2022-10-22T22:59:06.102Z,10.27
2022-10-22T23:01:38.310Z,10.23
2022-10-22T23:04:07.481Z,10.20
2022-10-22T23:06:36.205Z,10.19
2022-10-22T23:09:04.704Z,10.16
2022-10-22T23:11:31.211Z,10.18
2022-10-22T23:14:00.002Z,10.15
2022-10-22T23:16:29.498Z,10.13
2022-10-22T23:18:56.720Z,10.17
2022-10-22T23:21:28.677Z,10.17
2022-10-22T23:23:57.773Z,10.09
2022-10-22T23:26:31.461Z,10.08
2022-10-22T23:29:12.310Z,10.06
2022-10-22T23:31:38.802Z,10.06
2022-10-22T23:34:06.034Z,10.01
2022-10-22T23:36:34.300Z,10.01
2022-10-22T23:39:02.369Z,9.96
2022-10-22T23:41:28.641Z,10.02
2022-10-22T23:43:55.057Z,9.96
2022-10-22T23:46:21.405Z,9.94
2022-10-22T23:48:47.727Z,9.91
2022-10-22T23:51:16.533Z,9.86
2022-10-22T23:53:44.231Z,9.89
2022-10-22T23:56:18.181Z,9.88
2022-10-22T23:58:45.195Z,9.88
